Sunday, April 22, 2018, 9:48 PM EDT
Back to Local

KCXY, Harrisburg Capital City

Location: New Cumberland, PA, United States Lat: 40.217
Local Time: 9:48 PM EDT ( 1:48 GMT) Lon: -76.85
Time Zone: US/Eastern Elev: 347 ft

Show me the last for .
Show Coded

Time T Td Feel RH Dir Speed Gust Alt SLP Vis Weather Sky Remarks
2018-04-22 20:56 56 34 - 43 - Calm - 30.35 30.36 10 CLR None
2018-04-22 19:56 62 29 - 28 110° 5 - 30.33 30.34 10 CLR 6-hr Min Temp (8pm): 62.1°F
6-hr Max Temp (8pm): 66.0°F
2018-04-22 18:56 63 31 - 29 100° 7 - 30.32 30.33 10 CLR None
2018-04-22 17:56 65 29 - 25 100° 6 - 30.33 30.33 10 CLR None
2018-04-22 16:56 65 29 - 25 100° 6 - 30.34 30.34 10 CLR None
2018-04-22 15:56 65 29 - 25 80° 8 - 30.34 30.34 10 CLR None
2018-04-22 14:56 64 27 - 24 80° 6 - 30.36 30.37 10 CLR None
2018-04-22 13:56 64 28 - 25 80° 6 - 30.39 30.39 10 CLR 6-hr Min Temp (2pm): 46.9°F
6-hr Max Temp (2pm): 64.0°F
2018-04-22 12:56 61 25 - 25 120° 5 - 30.40 30.40 10 CLR None
2018-04-22 11:56 59 23 - 24 110° 8 - 30.42 30.42 10 CLR None
2018-04-22 10:56 59 23 - 24 110° 6 - 30.43 30.44 10 CLR None
2018-04-22 09:56 56 23 - 27 120° 8 - 30.44 30.44 10 CLR None
2018-04-22 08:56 53 25 - 33 100° 6 - 30.45 30.45 10 CLR None
2018-04-22 07:56 47 35 - 63 - Calm - 30.43 30.44 10 CLR 6-hr Min Temp (8am): 37.9°F
6-hr Max Temp (8am): 48.0°F
2018-04-22 06:56 39 31 - 72 - Calm - 30.42 30.43 10 CLR None
2018-04-22 05:56 40 32 - 73 - Calm - 30.40 30.41 10 CLR None
2018-04-22 04:56 42 33 - 70 - Calm - 30.39 30.40 10 CLR None
2018-04-22 03:56 43 35 - 73 - Calm - 30.39 30.40 10 CLR None
2018-04-22 02:56 46 35 - 65 - Calm - 30.38 30.38 10 CLR None
2018-04-22 01:56 46 34 - 62 - Calm - 30.38 30.39 10 CLR 6-hr Min Temp (2am): 43.0°F
6-hr Max Temp (2am): 59.0°F
2018-04-22 00:56 47 34 - 60 - Calm - 30.38 30.39 10 CLR 24-hr Min Temp (1am): 33.1°F
24-hr Max Temp (1am): 62.1°F
2018-04-21 23:56 47 33 - 58 - Calm - 30.37 30.37 10 CLR None
2018-04-21 22:56 50 32 - 49 - Calm - 30.36 30.36 10 CLR None
2018-04-21 21:56 52 34 - 50 - Calm - 30.34 30.35 10 CLR None

Support USWX by starting your Amazon purchase here.